createdAt,value
2023-12-22T00:00:35.468Z,29.86
2023-12-22T00:01:35.557Z,29.87
2023-12-22T00:02:35.614Z,29.86
2023-12-22T00:03:35.748Z,29.89
2023-12-22T00:04:35.765Z,29.89
2023-12-22T00:05:35.866Z,29.87
2023-12-22T00:06:35.935Z,29.87
2023-12-22T00:07:35.978Z,29.84
2023-12-22T00:08:36.076Z,29.86
2023-12-22T00:09:36.153Z,29.93
2023-12-22T00:10:36.245Z,29.84
2023-12-22T00:11:36.259Z,29.86
2023-12-22T00:12:36.332Z,29.89
2023-12-22T00:13:36.766Z,29.84
2023-12-22T00:14:36.485Z,29.83
2023-12-22T00:15:36.535Z,29.81
2023-12-22T00:16:36.722Z,29.83
2023-12-22T00:17:36.666Z,29.89
2023-12-22T00:18:36.825Z,29.84
2023-12-22T00:19:37.074Z,29.83
2023-12-22T00:20:36.927Z,29.81
2023-12-22T00:21:36.953Z,29.81
2023-12-22T00:22:37.087Z,29.80
2023-12-22T00:23:37.220Z,29.84
2023-12-22T00:24:37.159Z,29.81
2023-12-22T00:25:37.294Z,29.83
2023-12-22T00:26:37.317Z,29.81
2023-12-22T00:27:37.320Z,29.81
2023-12-22T00:28:37.502Z,29.78
2023-12-22T00:29:37.495Z,29.81
2023-12-22T00:30:37.605Z,29.78
2023-12-22T00:31:37.690Z,29.80
2023-12-22T00:32:37.738Z,29.81
2023-12-22T00:33:37.910Z,29.81
2023-12-22T00:34:37.862Z,29.78
2023-12-22T00:35:37.894Z,29.81
2023-12-22T00:36:37.962Z,29.86
2023-12-22T00:37:38.045Z,29.83
2023-12-22T00:38:38.124Z,29.80
2023-12-22T00:39:38.128Z,29.81
2023-12-22T00:40:38.292Z,29.81
2023-12-22T00:41:38.286Z,29.82
2023-12-22T00:42:38.360Z,29.83
2023-12-22T00:43:38.439Z,29.78
2023-12-22T00:44:38.497Z,29.71
2023-12-22T00:45:38.590Z,29.81
2023-12-22T00:46:38.740Z,29.87
2023-12-22T00:47:38.720Z,29.80
2023-12-22T00:48:38.783Z,29.83
2023-12-22T00:49:38.853Z,29.77
2023-12-22T00:50:38.924Z,29.80
2023-12-22T00:51:38.984Z,29.77
2023-12-22T00:52:39.065Z,29.75
2023-12-22T00:53:39.254Z,29.78
2023-12-22T00:54:39.189Z,29.76
2023-12-22T00:55:39.273Z,29.73
2023-12-22T00:56:39.324Z,29.75
2023-12-22T00:57:39.381Z,29.78
2023-12-22T00:58:39.776Z,29.78
2023-12-22T00:59:39.535Z,29.82
2023-12-22T01:00:39.643Z,29.78
2023-12-22T01:01:39.767Z,29.77
2023-12-22T01:02:39.692Z,29.78
2023-12-22T01:03:39.813Z,29.73
2023-12-22T01:04:39.882Z,29.70
2023-12-22T01:05:40.009Z,29.70
2023-12-22T01:06:40.031Z,29.78
2023-12-22T01:07:40.790Z,29.73
2023-12-22T01:08:40.233Z,29.75
2023-12-22T01:09:40.125Z,29.76
2023-12-22T01:10:40.227Z,29.75
2023-12-22T01:11:40.222Z,29.78
2023-12-22T01:12:40.324Z,29.75
2023-12-22T01:13:40.414Z,29.73
2023-12-22T01:14:40.432Z,29.75
2023-12-22T01:15:40.524Z,29.75
2023-12-22T01:16:40.644Z,29.73
2023-12-22T01:17:40.714Z,29.72
2023-12-22T01:18:41.297Z,29.71
2023-12-22T01:19:40.859Z,29.72
2023-12-22T01:20:40.882Z,29.73
2023-12-22T01:21:40.937Z,29.70
2023-12-22T01:22:41.102Z,29.72
2023-12-22T01:23:41.111Z,29.69
2023-12-22T01:24:41.187Z,29.72
2023-12-22T01:25:41.330Z,29.76
2023-12-22T01:26:41.285Z,29.78
2023-12-22T01:27:41.367Z,29.76
2023-12-22T01:28:41.531Z,29.73
2023-12-22T01:29:41.717Z,29.71
2023-12-22T01:30:41.578Z,29.72
2023-12-22T01:31:41.708Z,29.75
2023-12-22T01:32:41.698Z,29.75
2023-12-22T01:33:41.751Z,29.75
2023-12-22T01:34:41.846Z,29.70
2023-12-22T01:35:41.867Z,29.69
2023-12-22T01:36:41.910Z,29.73
2023-12-22T01:37:42.002Z,29.72
2023-12-22T01:38:42.040Z,29.75
2023-12-22T01:39:42.076Z,29.70
2023-12-22T01:40:42.137Z,29.73
2023-12-22T01:41:42.175Z,29.72
2023-12-22T01:42:42.267Z,29.71
2023-12-22T01:43:42.300Z,29.75
2023-12-22T01:44:42.321Z,29.76
2023-12-22T01:45:42.368Z,29.73
2023-12-22T01:46:42.421Z,29.78
2023-12-22T01:47:42.459Z,29.75
2023-12-22T01:48:42.578Z,29.75
2023-12-22T01:49:42.790Z,29.68
2023-12-22T01:50:42.573Z,29.71
2023-12-22T01:51:42.594Z,29.70
2023-12-22T01:52:42.689Z,29.71
2023-12-22T01:53:42.678Z,29.71
2023-12-22T01:54:42.654Z,29.71
2023-12-22T01:55:42.728Z,29.73
2023-12-22T01:56:42.736Z,29.73
2023-12-22T01:57:42.797Z,29.76
2023-12-22T01:58:42.802Z,29.76
2023-12-22T01:59:42.832Z,29.67
2023-12-22T02:00:42.873Z,29.70
2023-12-22T02:01:43.043Z,29.67
2023-12-22T02:02:42.959Z,29.70
2023-12-22T02:03:43.073Z,29.73
2023-12-22T02:04:43.147Z,29.70
2023-12-22T02:05:43.195Z,29.68
2023-12-22T02:06:43.145Z,29.70
2023-12-22T02:07:43.307Z,29.70
2023-12-22T02:08:43.229Z,29.73
2023-12-22T02:09:43.324Z,29.67
2023-12-22T02:10:43.419Z,29.64
2023-12-22T02:11:43.380Z,29.67
2023-12-22T02:12:43.439Z,29.67
2023-12-22T02:13:43.461Z,29.71
2023-12-22T02:14:43.745Z,29.64
2023-12-22T02:15:43.550Z,29.64
2023-12-22T02:16:43.603Z,29.65
2023-12-22T02:17:43.661Z,29.68
2023-12-22T02:18:43.736Z,29.61
2023-12-22T02:19:43.792Z,29.64
2023-12-22T02:20:43.729Z,29.64
2023-12-22T02:21:43.769Z,29.64
2023-12-22T02:22:43.843Z,29.64
2023-12-22T02:23:43.859Z,29.64
2023-12-22T02:24:43.919Z,29.59
2023-12-22T02:25:43.988Z,29.64
2023-12-22T02:26:44.003Z,29.58
2023-12-22T02:27:44.762Z,29.59
2023-12-22T02:28:44.174Z,29.61
2023-12-22T02:29:44.260Z,29.59
2023-12-22T02:30:44.206Z,29.64
2023-12-22T02:31:44.412Z,29.64
2023-12-22T02:32:44.438Z,29.67
2023-12-22T02:33:44.373Z,29.68
2023-12-22T02:34:44.540Z,29.62
2023-12-22T02:35:44.457Z,29.61
2023-12-22T02:36:44.567Z,29.61
2023-12-22T02:37:44.592Z,29.64
2023-12-22T02:38:44.659Z,29.64
2023-12-22T02:39:44.806Z,29.59
2023-12-22T02:40:44.773Z,29.59
2023-12-22T02:41:44.752Z,29.62
2023-12-22T02:42:44.773Z,29.62
2023-12-22T02:43:44.886Z,29.58
2023-12-22T02:44:44.875Z,29.61
2023-12-22T02:45:44.888Z,29.59
2023-12-22T02:46:44.969Z,29.56
2023-12-22T02:47:45.027Z,29.59
2023-12-22T02:48:45.024Z,29.62
2023-12-22T02:49:45.282Z,29.55
2023-12-22T02:50:45.064Z,29.62
2023-12-22T02:51:45.080Z,29.58
2023-12-22T02:52:45.166Z,29.52
2023-12-22T02:53:45.151Z,29.58
2023-12-22T02:54:45.210Z,29.58
2023-12-22T02:55:45.377Z,29.53
2023-12-22T02:56:45.248Z,29.53
2023-12-22T02:57:45.251Z,29.52
2023-12-22T02:58:45.320Z,29.54
2023-12-22T02:59:45.328Z,29.61
2023-12-22T03:00:45.346Z,29.56
2023-12-22T03:01:45.387Z,29.50
2023-12-22T03:02:45.345Z,29.53
2023-12-22T03:03:45.469Z,29.55
2023-12-22T03:04:45.446Z,29.53
2023-12-22T03:05:45.459Z,29.52
2023-12-22T03:06:45.486Z,29.58
2023-12-22T03:07:45.543Z,29.53
2023-12-22T03:08:45.563Z,29.53
2023-12-22T03:09:45.739Z,29.55
2023-12-22T03:10:45.635Z,29.53
2023-12-22T03:11:45.624Z,29.54
2023-12-22T03:12:45.633Z,29.54
2023-12-22T03:13:45.737Z,29.53
2023-12-22T03:14:45.716Z,29.51
2023-12-22T03:15:45.745Z,29.53
2023-12-22T03:16:45.783Z,29.48
2023-12-22T03:17:45.864Z,29.51
2023-12-22T03:18:45.885Z,29.53
2023-12-22T03:19:45.908Z,29.51
2023-12-22T03:20:45.864Z,29.53
2023-12-22T03:21:45.907Z,29.50
2023-12-22T03:22:45.950Z,29.53
2023-12-22T03:23:45.978Z,29.53
2023-12-22T03:24:46.040Z,29.54
2023-12-22T03:25:46.040Z,29.53
2023-12-22T03:26:46.030Z,29.54
2023-12-22T03:27:46.219Z,29.57
2023-12-22T03:28:46.080Z,29.51
2023-12-22T03:29:46.099Z,29.55
2023-12-22T03:30:46.107Z,29.56
2023-12-22T03:31:46.084Z,29.54
2023-12-22T03:32:46.112Z,29.56
2023-12-22T03:33:46.117Z,29.56
2023-12-22T03:34:46.348Z,29.50
2023-12-22T03:35:46.137Z,29.50
2023-12-22T03:36:46.154Z,29.48
2023-12-22T03:37:46.376Z,29.54
2023-12-22T03:38:46.767Z,29.53
2023-12-22T03:39:46.236Z,29.47
2023-12-22T03:40:46.216Z,29.48
2023-12-22T03:41:46.252Z,29.48
2023-12-22T03:42:46.267Z,29.45
2023-12-22T03:43:46.327Z,29.51
2023-12-22T03:44:46.279Z,29.47
2023-12-22T03:45:46.273Z,29.47
2023-12-22T03:46:46.352Z,29.47
2023-12-22T03:47:46.574Z,29.48
2023-12-22T03:48:46.372Z,29.44
2023-12-22T03:49:46.396Z,29.44
2023-12-22T03:50:46.393Z,29.47
2023-12-22T03:51:46.381Z,29.50
2023-12-22T03:52:46.476Z,29.47
2023-12-22T03:54:05.105Z,29.51
2023-12-22T03:55:05.089Z,29.43
2023-12-22T03:56:05.137Z,29.48
2023-12-22T03:57:05.071Z,29.47
2023-12-22T03:58:05.097Z,29.48
2023-12-22T03:59:05.110Z,29.48
2023-12-22T04:00:05.108Z,29.43
2023-12-22T04:01:05.112Z,29.41
2023-12-22T04:02:05.162Z,29.45
2023-12-22T04:03:05.180Z,29.47
2023-12-22T04:04:05.133Z,29.41
2023-12-22T04:05:05.183Z,29.45
2023-12-22T04:06:05.121Z,29.44
2023-12-22T04:07:05.093Z,29.45
2023-12-22T04:08:05.175Z,29.47
2023-12-22T04:09:05.136Z,29.44
2023-12-22T04:10:05.157Z,29.38
2023-12-22T04:11:05.103Z,29.47
2023-12-22T04:12:05.116Z,29.41
2023-12-22T04:13:05.133Z,29.38
2023-12-22T04:14:05.105Z,29.41
2023-12-22T04:15:05.111Z,29.38
2023-12-22T04:16:05.164Z,29.43
2023-12-22T04:17:05.139Z,29.35
2023-12-22T04:18:05.220Z,29.41
2023-12-22T04:19:06.142Z,29.39
2023-12-22T04:20:05.149Z,29.42
2023-12-22T04:21:05.133Z,29.44
2023-12-22T04:22:05.119Z,29.39
2023-12-22T04:23:05.155Z,29.41
2023-12-22T04:24:05.159Z,29.47
2023-12-22T04:25:05.151Z,29.44
2023-12-22T04:26:05.157Z,29.38
2023-12-22T04:27:05.164Z,29.43
2023-12-22T04:28:05.165Z,29.43
2023-12-22T04:29:05.177Z,29.43
2023-12-22T04:30:05.215Z,29.43
2023-12-22T04:31:12.419Z,29.45
2023-12-22T04:32:12.400Z,29.44
2023-12-22T04:33:12.487Z,29.39
2023-12-22T04:34:12.459Z,29.39
2023-12-22T04:35:12.438Z,29.43
2023-12-22T04:36:12.444Z,29.39
2023-12-22T04:37:12.462Z,29.41
2023-12-22T04:38:12.448Z,29.35
2023-12-22T04:39:12.468Z,29.39
2023-12-22T04:40:12.444Z,29.39
2023-12-22T04:41:12.417Z,29.43
2023-12-22T04:42:12.456Z,29.43
2023-12-22T04:43:12.446Z,29.39
2023-12-22T04:44:12.445Z,29.39
2023-12-22T04:45:12.421Z,29.44
2023-12-22T04:46:12.432Z,29.39
2023-12-22T04:47:12.447Z,29.39
2023-12-22T04:48:12.511Z,29.38
2023-12-22T04:49:12.556Z,29.41
2023-12-22T04:50:12.525Z,29.45
2023-12-22T04:51:12.429Z,29.41
2023-12-22T04:52:12.463Z,29.39
2023-12-22T04:53:12.523Z,29.38
2023-12-22T04:54:12.454Z,29.39
2023-12-22T04:55:12.602Z,29.39
2023-12-22T04:56:12.491Z,29.39
2023-12-22T04:57:13.605Z,29.39
2023-12-22T04:58:12.486Z,29.39
2023-12-22T04:59:12.465Z,29.39
2023-12-22T05:00:12.530Z,29.38
2023-12-22T05:01:12.525Z,29.38
2023-12-22T05:02:12.520Z,29.36
2023-12-22T05:03:12.586Z,29.34
2023-12-22T05:04:12.633Z,29.32
2023-12-22T05:05:12.630Z,29.32
2023-12-22T05:06:12.934Z,29.36
2023-12-22T05:07:12.896Z,29.33
2023-12-22T05:08:12.908Z,29.34
2023-12-22T05:09:12.868Z,29.38
2023-12-22T05:10:12.840Z,29.35
2023-12-22T05:11:12.901Z,29.32
2023-12-22T05:12:12.926Z,29.32
2023-12-22T05:13:12.996Z,29.28
2023-12-22T05:14:13.086Z,29.33
2023-12-22T05:15:13.102Z,29.32
2023-12-22T05:16:13.087Z,29.36
2023-12-22T05:17:13.125Z,29.35
2023-12-22T05:18:13.260Z,29.34
2023-12-22T05:19:13.244Z,29.34
2023-12-22T05:20:13.632Z,29.32
2023-12-22T05:21:13.391Z,29.35
2023-12-22T05:22:13.413Z,29.25
2023-12-22T05:23:13.505Z,29.30
2023-12-22T05:24:13.483Z,29.28
2023-12-22T05:25:13.503Z,29.36
2023-12-22T05:26:13.590Z,29.33
2023-12-22T05:27:13.531Z,29.32
2023-12-22T05:28:13.585Z,29.33
2023-12-22T05:29:13.634Z,29.28
2023-12-22T05:30:13.628Z,29.38
2023-12-22T05:31:13.635Z,29.33
2023-12-22T05:32:13.648Z,29.28
2023-12-22T05:33:13.691Z,29.33
2023-12-22T05:34:14.602Z,29.34
2023-12-22T05:35:13.939Z,29.25
2023-12-22T05:36:13.761Z,29.28
2023-12-22T05:37:13.773Z,29.30
2023-12-22T05:38:13.791Z,29.25
2023-12-22T05:39:13.854Z,29.25
2023-12-22T05:40:13.883Z,29.24
2023-12-22T05:41:13.845Z,29.22
2023-12-22T05:42:13.892Z,29.27
2023-12-22T05:43:13.907Z,29.27
2023-12-22T05:44:13.934Z,29.25
2023-12-22T05:45:13.938Z,29.27
2023-12-22T05:46:13.959Z,29.22
2023-12-22T05:47:14.025Z,29.24
2023-12-22T05:48:14.127Z,29.27
2023-12-22T05:49:14.190Z,29.25
2023-12-22T05:50:14.360Z,29.24
2023-12-22T05:51:14.067Z,29.21
2023-12-22T05:52:14.099Z,29.19
2023-12-22T05:53:14.086Z,29.24
2023-12-22T05:54:14.168Z,29.21
2023-12-22T05:55:14.155Z,29.18
2023-12-22T05:56:14.168Z,29.21
2023-12-22T05:57:14.193Z,29.27
2023-12-22T05:58:14.235Z,29.22
2023-12-22T05:59:14.261Z,29.21
2023-12-22T06:00:14.277Z,29.21
2023-12-22T06:01:14.310Z,29.13
2023-12-22T06:02:14.338Z,29.19
2023-12-22T06:03:14.388Z,29.22
2023-12-22T06:04:14.378Z,29.21
2023-12-22T06:05:14.502Z,29.27
2023-12-22T06:06:14.459Z,29.19
2023-12-22T06:07:14.479Z,29.16
2023-12-22T06:08:14.457Z,29.16
2023-12-22T06:09:14.479Z,29.21
2023-12-22T06:10:14.524Z,29.19
2023-12-22T06:11:14.545Z,29.16
2023-12-22T06:12:14.619Z,29.14
2023-12-22T06:13:14.584Z,29.17
2023-12-22T06:14:14.620Z,29.15
2023-12-22T06:15:14.655Z,29.15
2023-12-22T06:16:14.651Z,29.11
2023-12-22T06:17:14.691Z,29.17
2023-12-22T06:18:14.792Z,29.17
2023-12-22T06:19:14.792Z,29.11
2023-12-22T06:20:15.082Z,29.14
2023-12-22T06:21:14.730Z,29.13
2023-12-22T06:22:14.794Z,29.16
2023-12-22T06:23:14.790Z,29.16
2023-12-22T06:24:14.802Z,29.21
2023-12-22T06:25:14.780Z,29.16
2023-12-22T06:26:14.824Z,29.16
2023-12-22T06:27:14.791Z,29.21
2023-12-22T06:28:14.820Z,29.13
2023-12-22T06:29:14.797Z,29.14
2023-12-22T06:30:14.844Z,29.22
2023-12-22T06:31:14.867Z,29.16
2023-12-22T06:32:14.863Z,29.14
2023-12-22T06:33:14.945Z,29.10
2023-12-22T06:34:14.869Z,29.21
2023-12-22T06:35:17.820Z,29.16
2023-12-22T06:36:14.896Z,29.16
2023-12-22T06:37:14.893Z,29.17
2023-12-22T06:38:14.876Z,29.16
2023-12-22T06:39:14.887Z,29.13
2023-12-22T06:40:14.912Z,29.12
2023-12-22T06:41:14.870Z,29.11
2023-12-22T06:42:14.904Z,29.15
2023-12-22T06:43:14.918Z,29.07
2023-12-22T06:44:14.889Z,29.13
2023-12-22T06:45:15.135Z,29.07
2023-12-22T06:46:14.878Z,29.08
2023-12-22T06:47:15.053Z,30.62
2023-12-22T06:48:15.089Z,29.64
2023-12-22T06:49:14.926Z,29.95
2023-12-22T06:50:15.069Z,30.07
2023-12-22T06:51:14.915Z,30.47
2023-12-22T06:52:14.933Z,30.31
2023-12-22T06:53:24.976Z,30.89
2023-12-22T06:54:17.579Z,30.82
2023-12-22T06:55:14.953Z,31.39
2023-12-22T06:56:14.929Z,31.85
2023-12-22T06:57:15.963Z,31.21
2023-12-22T06:58:14.943Z,33.11
2023-12-22T06:59:16.416Z,36.56
2023-12-22T07:00:14.966Z,42.52
2023-12-22T07:01:14.948Z,32.21
2023-12-22T07:02:20.036Z,31.95
2023-12-22T07:03:16.116Z,31.82
2023-12-22T07:04:14.982Z,30.85
2023-12-22T07:05:15.103Z,31.80
2023-12-22T07:06:14.949Z,32.69
2023-12-22T07:07:14.954Z,33.27
2023-12-22T07:08:14.996Z,33.08
2023-12-22T07:09:14.983Z,32.34
2023-12-22T07:10:14.972Z,32.82
2023-12-22T07:11:15.885Z,34.15
2023-12-22T07:12:15.048Z,35.33
2023-12-22T07:13:14.974Z,34.07
2023-12-22T07:14:15.051Z,34.29
2023-12-22T07:15:15.130Z,34.26
2023-12-22T07:16:14.986Z,33.65
2023-12-22T07:17:14.994Z,33.66
2023-12-22T07:18:15.090Z,34.57
2023-12-22T07:19:15.035Z,33.50
2023-12-22T07:20:15.122Z,33.74
2023-12-22T07:21:15.128Z,33.72
2023-12-22T07:22:15.153Z,33.41
2023-12-22T07:23:15.290Z,32.99
2023-12-22T07:24:16.447Z,33.04
2023-12-22T07:25:15.485Z,32.15
2023-12-22T07:26:15.322Z,32.21
2023-12-22T07:27:15.274Z,31.53
2023-12-22T07:28:15.304Z,32.11
2023-12-22T07:29:15.396Z,32.25
2023-12-22T07:30:15.347Z,31.47
2023-12-22T07:31:15.584Z,31.46
2023-12-22T07:32:16.058Z,31.51
2023-12-22T07:33:15.487Z,31.24
2023-12-22T07:34:15.431Z,31.65
2023-12-22T07:35:16.265Z,31.42
2023-12-22T07:36:15.440Z,30.94
2023-12-22T07:37:15.501Z,31.48
2023-12-22T07:38:15.592Z,32.17
2023-12-22T07:39:16.723Z,30.00
2023-12-22T07:40:17.254Z,29.92
2023-12-22T07:41:16.599Z,29.96
2023-12-22T07:42:15.911Z,29.63
2023-12-22T07:43:15.672Z,30.52
2023-12-22T07:44:16.657Z,30.85
2023-12-22T07:45:15.764Z,60.22
2023-12-22T07:46:15.791Z,30.89
2023-12-22T07:47:16.306Z,30.92
2023-12-22T07:48:15.919Z,30.92
2023-12-22T07:49:16.978Z,31.27
2023-12-22T07:50:16.762Z,30.42
2023-12-22T07:51:15.987Z,30.07
2023-12-22T07:52:16.201Z,29.56
2023-12-22T07:53:16.144Z,30.22
2023-12-22T07:54:16.188Z,30.72
2023-12-22T07:55:16.158Z,28.88
2023-12-22T07:56:16.372Z,30.26
2023-12-22T07:57:16.230Z,29.21
2023-12-22T07:58:16.301Z,30.26
2023-12-22T07:59:26.472Z,30.90
2023-12-22T08:00:17.380Z,30.41
2023-12-22T08:01:16.383Z,30.08
2023-12-22T08:02:16.382Z,32.08
2023-12-22T08:03:16.375Z,32.86
2023-12-22T08:04:16.335Z,32.14
2023-12-22T08:05:16.335Z,31.76
2023-12-22T08:06:16.462Z,31.72
2023-12-22T08:07:16.446Z,31.15
2023-12-22T08:08:16.320Z,31.05
2023-12-22T08:09:16.319Z,31.03
2023-12-22T08:10:16.370Z,30.74
2023-12-22T08:11:16.382Z,30.68
2023-12-22T08:12:16.341Z,30.64
2023-12-22T08:13:16.422Z,30.62
2023-12-22T08:14:16.370Z,30.64
2023-12-22T08:15:25.203Z,30.58
2023-12-22T08:16:17.410Z,30.53
2023-12-22T08:17:16.441Z,30.58
2023-12-22T08:18:16.562Z,30.51
2023-12-22T08:19:16.698Z,30.48
2023-12-22T08:20:21.286Z,30.45
2023-12-22T08:21:25.114Z,30.47
2023-12-22T08:22:18.027Z,30.46
2023-12-22T08:23:17.079Z,30.41
2023-12-22T08:24:21.312Z,30.33
2023-12-22T08:25:17.557Z,30.31
2023-12-22T08:26:16.538Z,30.29
2023-12-22T08:27:16.439Z,30.28
2023-12-22T08:28:16.478Z,30.29
2023-12-22T08:29:16.458Z,30.22
2023-12-22T08:30:16.643Z,30.25
2023-12-22T08:31:16.435Z,30.22
2023-12-22T08:32:16.489Z,30.28
2023-12-22T08:33:16.542Z,30.24
2023-12-22T08:34:16.498Z,30.22
2023-12-22T08:35:16.551Z,30.26
2023-12-22T08:36:16.839Z,30.22
2023-12-22T08:37:16.515Z,30.24
2023-12-22T08:38:16.571Z,30.19
2023-12-22T08:39:16.674Z,30.16
2023-12-22T08:40:16.569Z,30.13
2023-12-22T08:41:16.522Z,30.20
2023-12-22T08:42:16.491Z,30.18
2023-12-22T08:43:16.479Z,30.14
2023-12-22T08:44:16.573Z,30.15
2023-12-22T08:45:16.610Z,30.18
2023-12-22T08:46:16.503Z,30.13
2023-12-22T08:47:16.484Z,30.17
2023-12-22T08:48:16.539Z,31.04
2023-12-22T08:49:16.647Z,31.42
2023-12-22T08:50:16.649Z,31.89
2023-12-22T08:51:16.494Z,32.58
2023-12-22T08:52:16.514Z,32.98
2023-12-22T08:53:16.572Z,33.66
2023-12-22T08:54:16.584Z,37.33
2023-12-22T08:55:16.704Z,35.44
2023-12-22T08:56:16.702Z,35.31
2023-12-22T08:57:16.753Z,35.52
2023-12-22T08:58:16.821Z,35.72
2023-12-22T08:59:16.880Z,35.79
2023-12-22T09:00:16.991Z,36.32
2023-12-22T09:01:17.155Z,36.51
2023-12-22T09:02:17.122Z,36.97
2023-12-22T09:03:17.176Z,36.76
2023-12-22T09:04:17.192Z,37.23
2023-12-22T09:05:17.741Z,37.84
2023-12-22T09:06:17.290Z,37.78
2023-12-22T09:07:17.400Z,38.10
2023-12-22T09:08:17.476Z,38.65
2023-12-22T09:09:17.458Z,38.59
2023-12-22T09:10:17.665Z,38.64
2023-12-22T09:11:17.601Z,39.15
2023-12-22T09:12:17.632Z,38.96
2023-12-22T09:13:17.704Z,39.28
2023-12-22T09:14:17.747Z,39.38
2023-12-22T09:15:17.794Z,38.86
2023-12-22T09:16:17.863Z,39.62
2023-12-22T09:17:17.914Z,39.51
2023-12-22T09:18:18.036Z,39.89
2023-12-22T09:19:18.013Z,39.73
2023-12-22T09:20:18.247Z,39.88
2023-12-22T09:21:18.038Z,40.19
2023-12-22T09:22:18.087Z,40.37
2023-12-22T09:23:18.101Z,40.36
2023-12-22T09:24:18.115Z,40.32
2023-12-22T09:25:18.217Z,40.15
2023-12-22T09:26:18.249Z,48.70
2023-12-22T09:27:18.311Z,40.58
2023-12-22T09:28:18.348Z,40.74
2023-12-22T09:29:18.337Z,40.48
2023-12-22T09:30:18.390Z,40.97
2023-12-22T09:31:18.387Z,41.26
2023-12-22T09:32:18.452Z,41.52
2023-12-22T09:33:18.594Z,41.07
2023-12-22T09:34:18.636Z,41.44
2023-12-22T09:35:18.652Z,41.41
2023-12-22T09:36:18.445Z,41.86
2023-12-22T09:37:18.524Z,41.97
2023-12-22T09:38:18.619Z,42.71
2023-12-22T09:39:18.608Z,42.46
2023-12-22T09:40:18.652Z,43.03
2023-12-22T09:41:18.610Z,42.46
2023-12-22T09:42:18.726Z,39.92
2023-12-22T09:43:18.795Z,40.64
2023-12-22T09:44:18.825Z,39.17
2023-12-22T09:45:19.194Z,40.16
2023-12-22T09:46:18.896Z,40.00
2023-12-22T09:47:18.980Z,39.81
2023-12-22T09:48:19.117Z,39.45
2023-12-22T09:49:19.207Z,39.37
2023-12-22T09:50:19.286Z,37.83
2023-12-22T09:51:19.284Z,37.73
2023-12-22T09:52:19.283Z,38.28
2023-12-22T09:53:19.289Z,37.64
2023-12-22T09:54:19.398Z,38.46
2023-12-22T09:55:19.796Z,38.13
2023-12-22T09:56:19.488Z,38.50
2023-12-22T09:57:26.060Z,38.26
2023-12-22T09:58:20.589Z,32.08
2023-12-22T09:59:19.673Z,30.82
2023-12-22T10:00:19.686Z,34.63
2023-12-22T10:01:19.590Z,33.87
2023-12-22T10:02:19.590Z,32.62
2023-12-22T10:03:19.505Z,31.86
2023-12-22T10:04:19.597Z,32.40
2023-12-22T10:05:19.812Z,33.39
2023-12-22T10:06:19.608Z,34.14
2023-12-22T10:07:19.544Z,34.55
2023-12-22T10:08:19.612Z,34.57
2023-12-22T10:09:19.530Z,34.13
2023-12-22T10:10:19.709Z,34.09
2023-12-22T10:11:19.543Z,33.88
2023-12-22T10:12:19.556Z,33.87
2023-12-22T10:13:19.601Z,34.19
2023-12-22T10:14:19.652Z,34.03
2023-12-22T10:15:20.162Z,34.22
2023-12-22T10:16:19.723Z,33.51
2023-12-22T10:17:19.801Z,33.73
2023-12-22T10:18:19.861Z,33.04
2023-12-22T10:19:19.851Z,33.58
2023-12-22T10:20:19.944Z,33.83
2023-12-22T10:21:19.885Z,34.74
2023-12-22T10:22:19.901Z,34.97
2023-12-22T10:23:19.998Z,34.93
2023-12-22T10:24:20.001Z,35.05
2023-12-22T10:25:20.091Z,35.16
2023-12-22T10:26:20.105Z,34.94
2023-12-22T10:27:20.069Z,35.26
2023-12-22T10:28:20.075Z,35.18
2023-12-22T10:29:20.048Z,38.85
2023-12-22T10:30:20.125Z,35.51
2023-12-22T10:31:20.198Z,34.84
2023-12-22T10:32:20.245Z,34.33
2023-12-22T10:33:20.447Z,34.03
2023-12-22T10:34:20.379Z,34.45
2023-12-22T10:35:20.432Z,32.95
2023-12-22T10:36:20.484Z,32.03
2023-12-22T10:37:20.538Z,29.37
2023-12-22T10:38:20.621Z,29.60
2023-12-22T10:39:20.659Z,29.65
2023-12-22T10:40:20.666Z,31.10
2023-12-22T10:41:20.716Z,31.94
2023-12-22T10:42:20.718Z,32.54
2023-12-22T10:43:20.857Z,33.13
2023-12-22T10:44:20.815Z,33.32
2023-12-22T10:45:20.891Z,33.27
2023-12-22T10:46:20.900Z,34.87
2023-12-22T10:47:20.968Z,35.46
2023-12-22T10:48:21.083Z,35.47
2023-12-22T10:49:20.992Z,35.44
2023-12-22T10:50:21.173Z,36.01
2023-12-22T10:51:21.127Z,36.40
2023-12-22T10:52:21.209Z,36.92
2023-12-22T10:53:21.241Z,37.21
2023-12-22T10:54:21.266Z,37.53
2023-12-22T10:55:21.675Z,38.26
2023-12-22T10:56:21.335Z,38.43
2023-12-22T10:57:21.346Z,38.76
2023-12-22T10:58:21.381Z,38.63
2023-12-22T10:59:21.397Z,39.09
2023-12-22T11:00:21.519Z,39.05
2023-12-22T11:01:21.488Z,39.49
2023-12-22T11:02:21.531Z,34.79
2023-12-22T11:03:21.501Z,33.14
2023-12-22T11:04:21.616Z,33.79
2023-12-22T11:05:21.543Z,32.57
2023-12-22T11:06:21.618Z,34.41
2023-12-22T11:07:21.659Z,35.94
2023-12-22T11:08:21.929Z,37.90
2023-12-22T11:09:21.785Z,37.62
2023-12-22T11:10:21.839Z,37.60
2023-12-22T11:11:21.883Z,38.09
2023-12-22T11:12:21.864Z,38.33
2023-12-22T11:13:21.882Z,38.50
2023-12-22T11:14:21.921Z,38.85
2023-12-22T11:15:21.878Z,39.16
2023-12-22T11:16:22.060Z,39.42
2023-12-22T11:17:21.896Z,39.68
2023-12-22T11:18:22.057Z,39.95
2023-12-22T11:19:22.046Z,40.04
2023-12-22T11:20:22.154Z,40.09
2023-12-22T11:21:22.029Z,40.59
2023-12-22T11:22:22.085Z,40.50
2023-12-22T11:23:22.142Z,40.80
2023-12-22T11:24:22.201Z,41.19
2023-12-22T11:25:22.295Z,37.26
2023-12-22T11:26:22.244Z,36.84
2023-12-22T11:27:22.286Z,35.77
2023-12-22T11:28:22.331Z,37.34
2023-12-22T11:29:22.333Z,35.49
2023-12-22T11:30:22.348Z,36.50
2023-12-22T11:31:22.511Z,36.63
2023-12-22T11:32:22.473Z,33.97
2023-12-22T11:33:22.596Z,33.96
2023-12-22T11:34:22.644Z,32.69
2023-12-22T11:35:22.582Z,33.06
2023-12-22T11:36:23.539Z,32.41
2023-12-22T11:37:22.559Z,33.73
2023-12-22T11:38:22.598Z,32.95
2023-12-22T11:39:22.534Z,34.30
2023-12-22T11:40:22.840Z,42.64
2023-12-22T11:41:27.454Z,36.25
2023-12-22T11:42:27.486Z,35.20
2023-12-22T11:43:27.461Z,35.32
2023-12-22T11:44:27.481Z,34.95
2023-12-22T11:45:27.428Z,35.71
2023-12-22T11:46:27.497Z,35.78
2023-12-22T11:47:27.491Z,35.51
2023-12-22T11:48:27.554Z,35.00
2023-12-22T11:49:27.541Z,34.85
2023-12-22T11:50:27.491Z,34.57
2023-12-22T11:51:27.506Z,34.60
2023-12-22T11:52:27.553Z,34.74
2023-12-22T11:53:27.476Z,35.05
2023-12-22T11:54:27.507Z,35.09
2023-12-22T11:55:27.519Z,34.97
2023-12-22T11:56:27.532Z,34.79
2023-12-22T11:57:27.442Z,34.54
2023-12-22T11:58:27.497Z,34.53
2023-12-22T11:59:27.467Z,34.63
2023-12-22T12:00:27.469Z,34.71
2023-12-22T12:01:27.578Z,34.85
2023-12-22T12:02:27.663Z,34.94
2023-12-22T12:03:27.494Z,34.88
2023-12-22T12:04:27.562Z,35.00
2023-12-22T12:05:27.660Z,35.06
2023-12-22T12:06:27.585Z,34.95
2023-12-22T12:07:27.511Z,35.03
2023-12-22T12:08:27.519Z,35.04
2023-12-22T12:09:27.494Z,35.06
2023-12-22T12:10:27.518Z,35.06
2023-12-22T12:11:27.509Z,35.12
2023-12-22T12:12:27.512Z,35.07
2023-12-22T12:13:27.603Z,35.05
2023-12-22T12:14:27.589Z,35.18
2023-12-22T12:15:27.610Z,35.12
2023-12-22T12:16:27.499Z,35.12
2023-12-22T12:17:27.704Z,35.16
2023-12-22T12:18:27.566Z,35.13
2023-12-22T12:19:27.656Z,35.09
2023-12-22T12:20:27.753Z,35.12
2023-12-22T12:21:27.792Z,35.15
2023-12-22T12:22:27.855Z,35.17
2023-12-22T12:23:27.901Z,35.17
2023-12-22T12:24:28.033Z,35.24
2023-12-22T12:25:32.691Z,35.21
2023-12-22T12:26:29.136Z,35.17
2023-12-22T12:27:28.027Z,35.10
2023-12-22T12:28:28.065Z,35.08
2023-12-22T12:29:28.053Z,35.02
2023-12-22T12:30:28.054Z,35.02
2023-12-22T12:31:28.085Z,34.96
2023-12-22T12:32:28.242Z,34.99
2023-12-22T12:33:28.192Z,34.99
2023-12-22T12:34:28.127Z,34.99
2023-12-22T12:35:28.207Z,34.98
2023-12-22T12:36:28.417Z,35.03
2023-12-22T12:37:28.266Z,35.05
2023-12-22T12:38:28.266Z,35.00
2023-12-22T12:39:28.317Z,35.04
2023-12-22T12:40:28.659Z,35.03
2023-12-22T12:41:28.450Z,34.93
2023-12-22T12:42:28.518Z,34.97
2023-12-22T12:43:28.798Z,34.93
2023-12-22T12:44:28.667Z,34.96
2023-12-22T12:45:28.903Z,35.00
2023-12-22T12:46:28.878Z,35.01
2023-12-22T12:47:29.071Z,35.01
2023-12-22T12:48:28.984Z,34.98
2023-12-22T12:49:29.359Z,34.97
2023-12-22T12:50:29.076Z,35.00
2023-12-22T12:51:29.141Z,34.95
2023-12-22T12:52:29.159Z,34.87
2023-12-22T12:53:29.196Z,34.91